createdAt,value
2019-03-23T00:02:12.693Z,10.10
2019-03-23T00:08:17.401Z,10.20
2019-03-23T00:14:22.044Z,10.10
2019-03-23T00:20:26.602Z,10.00
2019-03-23T00:26:31.223Z,9.90
2019-03-23T00:32:35.946Z,9.90
2019-03-23T00:38:40.504Z,9.90
2019-03-23T00:44:45.080Z,10.00
2019-03-23T00:50:49.628Z,9.90
2019-03-23T00:56:54.185Z,9.80
2019-03-23T01:02:58.751Z,9.80
2019-03-23T01:09:06.660Z,9.70
2019-03-23T01:15:13.926Z,9.60
2019-03-23T01:21:18.534Z,9.50
2019-03-23T01:27:23.089Z,9.30
2019-03-23T01:33:27.649Z,9.20
2019-03-23T01:39:32.201Z,9.10
2019-03-23T01:45:36.827Z,9.00
2019-03-23T01:51:41.453Z,8.90
2019-03-23T01:57:46.009Z,8.70
2019-03-23T02:03:50.646Z,8.60
2019-03-23T02:09:55.200Z,8.60
2019-03-23T02:15:59.827Z,8.50
2019-03-23T02:22:04.453Z,8.40
2019-03-23T02:28:09.021Z,8.30
2019-03-23T02:34:13.577Z,8.30
2019-03-23T02:40:18.149Z,8.30
2019-03-23T02:46:22.709Z,8.20
2019-03-23T02:52:27.268Z,8.00
2019-03-23T02:58:31.844Z,8.00
2019-03-23T03:04:36.407Z,7.90
2019-03-23T03:10:42.196Z,7.90
2019-03-23T03:16:46.746Z,7.80
2019-03-23T03:22:51.309Z,7.80
2019-03-23T03:28:55.849Z,7.80
2019-03-23T03:35:00.743Z,7.70
2019-03-23T03:41:05.531Z,7.60
2019-03-23T03:47:10.092Z,7.60
2019-03-23T03:53:14.640Z,7.40
2019-03-23T03:59:19.208Z,7.20
2019-03-23T04:05:23.788Z,7.10
2019-03-23T04:11:28.320Z,6.90
2019-03-23T04:17:32.883Z,6.70
2019-03-23T04:23:37.434Z,6.70
2019-03-23T04:29:41.981Z,6.40
2019-03-23T04:35:46.547Z,6.30
2019-03-23T04:41:51.169Z,6.10
2019-03-23T04:47:55.719Z,6.10
2019-03-23T04:54:00.273Z,6.10
2019-03-23T05:00:09.044Z,6.20
2019-03-23T05:06:13.610Z,6.30
2019-03-23T05:12:18.161Z,6.40
2019-03-23T05:18:22.716Z,6.50
2019-03-23T05:24:27.269Z,6.40
2019-03-23T05:30:31.826Z,6.30
2019-03-23T05:36:36.488Z,6.20
2019-03-23T05:42:41.045Z,6.00
2019-03-23T05:48:45.607Z,6.00
2019-03-23T05:54:50.168Z,6.00
2019-03-23T06:00:54.724Z,6.00
2019-03-23T06:06:59.283Z,6.00
2019-03-23T06:13:03.909Z,6.10
2019-03-23T06:19:08.465Z,6.30
2019-03-23T06:25:13.044Z,6.40
2019-03-23T06:31:17.592Z,6.50
2019-03-23T06:37:22.142Z,6.70
2019-03-23T06:43:26.696Z,6.80
2019-03-23T06:49:31.253Z,7.00
2019-03-23T06:55:36.082Z,7.00
2019-03-23T07:01:40.637Z,6.90
2019-03-23T07:07:45.189Z,7.10
2019-03-23T07:13:49.757Z,8.10
2019-03-23T07:19:54.323Z,10.70
2019-03-23T07:25:58.895Z,12.80
2019-03-23T07:32:05.947Z,14.80
2019-03-23T07:38:09.757Z,16.20
2019-03-23T07:44:14.323Z,16.00
2019-03-23T07:50:18.963Z,14.60
2019-03-23T07:56:23.534Z,13.60
2019-03-23T08:02:28.105Z,13.10
2019-03-23T08:08:32.680Z,12.80
2019-03-23T08:14:37.322Z,12.70
2019-03-23T08:20:41.962Z,12.80
2019-03-23T08:26:46.545Z,13.20
2019-03-23T08:32:51.277Z,13.90
2019-03-23T08:38:55.915Z,14.10
2019-03-23T08:45:00.501Z,14.60
2019-03-23T08:51:05.217Z,15.60
2019-03-23T08:57:09.778Z,16.60
2019-03-23T09:03:14.429Z,17.70
2019-03-23T09:09:18.994Z,18.90
2019-03-23T09:15:23.645Z,19.90
2019-03-23T09:21:28.223Z,21.40
2019-03-23T09:27:32.866Z,21.90
2019-03-23T09:33:37.457Z,23.10
2019-03-23T09:39:42.025Z,23.00
2019-03-23T09:45:46.606Z,19.80
2019-03-23T09:51:51.171Z,18.50
2019-03-23T09:57:55.751Z,18.30
2019-03-23T10:04:00.335Z,18.00
2019-03-23T10:10:06.412Z,18.10
2019-03-23T10:16:11.003Z,18.40
2019-03-23T10:22:15.593Z,17.30
2019-03-23T10:28:20.158Z,16.70
2019-03-23T10:34:24.722Z,17.00
2019-03-23T10:40:32.767Z,16.80
2019-03-23T10:46:35.586Z,17.80
2019-03-23T10:52:40.255Z,18.80
2019-03-23T10:58:44.835Z,18.90
2019-03-23T11:04:49.564Z,19.40
2019-03-23T11:10:54.135Z,18.70
2019-03-23T11:16:58.705Z,19.00
2019-03-23T11:23:03.265Z,18.00
2019-03-23T11:29:08.526Z,16.70
2019-03-23T11:35:13.669Z,15.70
2019-03-23T11:41:18.316Z,14.70
2019-03-23T11:47:22.931Z,13.90
2019-03-23T11:53:27.528Z,13.70
2019-03-23T11:59:32.108Z,13.30
2019-03-23T12:05:36.677Z,13.20
2019-03-23T12:11:41.258Z,13.30
2019-03-23T12:17:45.996Z,12.90
2019-03-23T12:23:50.561Z,12.90
2019-03-23T12:29:55.153Z,12.90
2019-03-23T12:35:59.825Z,12.60
2019-03-23T12:42:04.404Z,12.90
2019-03-23T12:48:08.979Z,13.00
2019-03-23T12:54:13.549Z,12.90
2019-03-23T13:00:18.545Z,12.40
2019-03-23T13:06:23.136Z,12.50
2019-03-23T13:12:27.729Z,13.10
2019-03-23T13:18:32.446Z,13.50
2019-03-23T13:24:37.025Z,12.70
2019-03-23T13:30:41.603Z,11.70
2019-03-23T13:36:46.189Z,11.60
2019-03-23T13:42:50.758Z,11.50
2019-03-23T13:48:55.402Z,11.70
2019-03-23T13:55:00.167Z,12.20
2019-03-23T14:01:04.879Z,12.70
2019-03-23T14:07:10.355Z,14.10
2019-03-23T14:13:14.931Z,15.50
2019-03-23T14:19:19.652Z,15.50
2019-03-23T14:25:24.218Z,16.60
2019-03-23T14:31:28.800Z,17.10
2019-03-23T14:37:33.367Z,16.90
2019-03-23T14:43:37.930Z,17.80
2019-03-23T14:49:42.523Z,18.10
2019-03-23T14:55:47.319Z,18.20
2019-03-23T15:01:51.976Z,18.60
2019-03-23T15:07:56.629Z,19.10
2019-03-23T15:14:01.195Z,19.80
2019-03-23T15:20:07.830Z,19.80
2019-03-23T15:26:12.519Z,19.50
2019-03-23T15:32:17.096Z,19.60
2019-03-23T15:38:21.670Z,18.40
2019-03-23T15:44:26.248Z,18.00
2019-03-23T15:50:30.829Z,18.20
2019-03-23T15:56:35.586Z,18.60
2019-03-23T16:02:42.904Z,18.40
2019-03-23T16:08:47.687Z,18.20
2019-03-23T16:14:52.271Z,17.80
2019-03-23T16:20:56.893Z,17.00
2019-03-23T16:27:01.569Z,16.10
2019-03-23T16:33:06.325Z,14.80
2019-03-23T16:39:10.965Z,14.10
2019-03-23T16:45:16.356Z,13.60
2019-03-23T16:51:20.952Z,13.20
2019-03-23T16:57:25.735Z,13.00
2019-03-23T17:03:30.316Z,12.80
2019-03-23T17:09:34.876Z,12.50
2019-03-23T17:15:39.435Z,12.40
2019-03-23T17:21:44.166Z,12.20
2019-03-23T17:27:48.745Z,12.10
2019-03-23T17:33:53.400Z,12.00
2019-03-23T17:39:57.953Z,11.80
2019-03-23T17:46:02.673Z,11.80
2019-03-23T17:52:07.352Z,11.70
2019-03-23T17:58:11.940Z,11.70
2019-03-23T18:04:16.580Z,11.60
2019-03-23T18:10:21.236Z,11.60
2019-03-23T18:16:25.952Z,11.60
2019-03-23T18:22:30.686Z,11.50
2019-03-23T18:28:35.315Z,11.50
2019-03-23T18:34:39.896Z,11.50
2019-03-23T18:40:44.650Z,11.50
2019-03-23T18:46:49.457Z,11.50
2019-03-23T18:52:54.016Z,11.40
2019-03-23T18:58:58.587Z,11.30
2019-03-23T19:05:03.254Z,11.30
2019-03-23T19:11:07.827Z,11.20
2019-03-23T19:17:12.408Z,11.20
2019-03-23T19:23:16.982Z,11.20
2019-03-23T19:29:21.567Z,11.20
2019-03-23T19:35:26.308Z,11.20
2019-03-23T19:41:30.994Z,11.20
2019-03-23T19:47:35.652Z,11.10
2019-03-23T19:53:40.409Z,11.10
2019-03-23T19:59:44.992Z,11.10
2019-03-23T20:05:49.640Z,11.00
2019-03-23T20:11:54.225Z,10.90
2019-03-23T20:17:58.819Z,10.80
2019-03-23T20:24:03.397Z,10.70
2019-03-23T20:30:11.487Z,10.70
2019-03-23T20:36:16.102Z,10.60
2019-03-23T20:42:20.760Z,10.50
2019-03-23T20:48:25.689Z,10.50
2019-03-23T20:54:30.403Z,10.30
2019-03-23T21:00:35.010Z,10.10
2019-03-23T21:06:39.591Z,10.00
2019-03-23T21:12:44.181Z,10.00
2019-03-23T21:18:48.761Z,10.00
2019-03-23T21:24:53.325Z,9.90
2019-03-23T21:30:57.897Z,9.90
2019-03-23T21:37:02.535Z,9.80
2019-03-23T21:43:07.103Z,9.70
2019-03-23T21:49:11.670Z,9.60
2019-03-23T21:55:16.478Z,9.60
2019-03-23T22:01:21.037Z,9.60
2019-03-23T22:07:25.598Z,9.60
2019-03-23T22:13:30.173Z,9.50
2019-03-23T22:19:34.810Z,9.50
2019-03-23T22:25:39.434Z,9.60
2019-03-23T22:31:44.006Z,9.50
2019-03-23T22:37:48.570Z,9.40
2019-03-23T22:43:53.112Z,9.30
2019-03-23T22:49:57.682Z,9.30
2019-03-23T22:56:02.317Z,9.30
2019-03-23T23:02:06.887Z,9.30
2019-03-23T23:08:11.470Z,9.10
2019-03-23T23:14:16.011Z,9.10
2019-03-23T23:20:20.596Z,9.10
2019-03-23T23:26:25.249Z,9.20
2019-03-23T23:32:29.796Z,9.20
2019-03-23T23:38:34.365Z,9.20
2019-03-23T23:44:38.918Z,9.10
2019-03-23T23:50:43.470Z,9.00
2019-03-23T23:56:48.153Z,9.00
